createdAt,value
2022-12-14T00:02:03.029Z,34.38
2022-12-14T00:04:32.165Z,32.05
2022-12-14T00:07:00.228Z,35.55
2022-12-14T00:09:28.774Z,32.85
2022-12-14T00:11:56.845Z,33.65
2022-12-14T00:14:25.058Z,31.75
2022-12-14T00:16:53.771Z,33.38
2022-12-14T00:19:22.157Z,37.28
2022-12-14T00:21:50.415Z,31.98
2022-12-14T00:24:18.888Z,31.55
2022-12-14T00:26:47.029Z,33.92
2022-12-14T00:29:15.104Z,29.35
2022-12-14T00:31:42.869Z,32.95
2022-12-14T00:34:11.498Z,31.85
2022-12-14T00:36:39.738Z,32.50
2022-12-14T00:39:07.728Z,31.58
2022-12-14T00:41:35.542Z,35.10
2022-12-14T00:44:03.721Z,35.22
2022-12-14T00:46:32.042Z,39.00
2022-12-14T00:49:01.842Z,30.95
2022-12-14T00:51:29.643Z,31.67
2022-12-14T00:53:57.606Z,34.05
2022-12-14T00:56:25.306Z,35.15
2022-12-14T00:58:54.766Z,30.63
2022-12-14T01:01:25.520Z,33.17
2022-12-14T01:04:24.052Z,32.88
2022-12-14T01:06:55.967Z,34.03
2022-12-14T01:09:25.775Z,31.30
2022-12-14T01:11:54.004Z,30.10
2022-12-14T01:14:24.984Z,34.17
2022-12-14T01:16:53.630Z,32.90
2022-12-14T01:19:21.576Z,27.17
2022-12-14T01:21:49.599Z,30.25
2022-12-14T01:24:19.213Z,31.00
2022-12-14T01:26:47.033Z,31.58
2022-12-14T01:29:16.403Z,31.48
2022-12-14T01:31:48.648Z,29.45
2022-12-14T01:34:18.231Z,31.80
2022-12-14T01:36:46.833Z,27.38
2022-12-14T01:39:16.481Z,25.67
2022-12-14T01:41:50.158Z,31.17
2022-12-14T01:44:18.621Z,34.05
2022-12-14T01:46:58.742Z,27.25
2022-12-14T01:49:54.622Z,27.63
2022-12-14T01:52:40.538Z,29.70
2022-12-14T01:55:12.060Z,31.45
2022-12-14T01:58:10.506Z,30.90
2022-12-14T02:00:39.146Z,33.05
2022-12-14T02:03:14.774Z,29.75
2022-12-14T02:05:56.425Z,30.42
2022-12-14T02:08:25.904Z,28.83
2022-12-14T02:10:55.461Z,31.27
2022-12-14T02:13:33.355Z,35.38
2022-12-14T02:16:01.570Z,28.38
2022-12-14T02:18:32.026Z,28.42
2022-12-14T02:21:17.626Z,29.40
2022-12-14T02:24:05.982Z,27.60
2022-12-14T02:27:05.709Z,30.92
2022-12-14T02:29:45.366Z,33.92
2022-12-14T02:32:54.377Z,29.17
2022-12-14T02:35:24.896Z,30.83
2022-12-14T02:38:06.247Z,27.58
2022-12-14T02:40:50.956Z,29.10
2022-12-14T02:43:37.707Z,30.63
2022-12-14T02:46:39.491Z,28.52
2022-12-14T02:49:25.707Z,33.55
2022-12-14T02:52:01.961Z,34.28
2022-12-14T02:54:38.469Z,28.77
2022-12-14T02:57:25.429Z,27.58
2022-12-14T02:59:58.099Z,31.88
2022-12-14T03:02:27.053Z,29.23
2022-12-14T03:04:56.726Z,29.55
2022-12-14T03:07:34.638Z,31.13
2022-12-14T03:10:21.744Z,32.50
2022-12-14T03:12:56.246Z,29.77
2022-12-14T03:15:26.863Z,29.50
2022-12-14T03:17:59.129Z,27.85
2022-12-14T03:20:31.164Z,29.33
2022-12-14T03:23:17.066Z,31.27
2022-12-14T03:25:56.210Z,38.75
2022-12-14T03:28:32.494Z,27.60
2022-12-14T03:31:06.794Z,28.45
2022-12-14T03:33:37.727Z,26.58
2022-12-14T03:36:32.438Z,28.70
2022-12-14T03:39:04.456Z,29.35
2022-12-14T03:41:51.019Z,31.17
2022-12-14T03:44:49.577Z,32.05
2022-12-14T03:47:31.707Z,31.77
2022-12-14T03:50:12.263Z,30.05
2022-12-14T03:53:07.246Z,31.52
2022-12-14T03:56:09.713Z,30.88
2022-12-14T03:58:42.283Z,31.73
2022-12-14T04:01:29.308Z,26.90
2022-12-14T04:04:14.618Z,34.53
2022-12-14T04:06:51.824Z,32.80
2022-12-14T04:09:23.523Z,29.63
2022-12-14T04:12:34.475Z,27.67
2022-12-14T04:15:30.665Z,26.42
2022-12-14T04:18:22.898Z,27.42
2022-12-14T04:20:57.166Z,32.95
2022-12-14T04:23:50.169Z,24.88
2022-12-14T04:26:23.385Z,31.98
2022-12-14T04:29:52.500Z,29.40
2022-12-14T04:32:35.956Z,28.85
2022-12-14T04:35:20.244Z,28.73
2022-12-14T04:37:57.066Z,27.85
2022-12-14T04:40:36.148Z,34.47
2022-12-14T04:43:09.646Z,26.30
2022-12-14T04:45:47.087Z,30.75
2022-12-14T04:48:47.444Z,30.35
2022-12-14T04:51:38.720Z,27.95
2022-12-14T04:54:17.158Z,30.02
2022-12-14T04:56:57.687Z,31.25
2022-12-14T04:59:26.206Z,26.45
2022-12-14T05:02:01.019Z,31.95
2022-12-14T05:04:56.990Z,27.52
2022-12-14T05:07:34.322Z,30.92
2022-12-14T05:10:16.536Z,28.35
2022-12-14T05:12:52.817Z,28.40
2022-12-14T05:15:25.618Z,27.42
2022-12-14T05:17:54.161Z,30.08
2022-12-14T05:20:24.435Z,32.42
2022-12-14T05:22:52.171Z,28.75
2022-12-14T05:25:20.357Z,26.60
2022-12-14T05:27:48.556Z,26.48
2022-12-14T05:30:17.571Z,28.08
2022-12-14T05:32:45.466Z,26.58
2022-12-14T05:35:15.003Z,27.33
2022-12-14T05:37:43.513Z,26.60
2022-12-14T05:40:15.118Z,27.58
2022-12-14T05:42:46.206Z,24.00
2022-12-14T05:45:17.361Z,26.08
2022-12-14T05:47:45.838Z,28.55
2022-12-14T05:50:14.434Z,28.45
2022-12-14T05:52:43.090Z,25.95
2022-12-14T05:55:11.494Z,28.15
2022-12-14T05:57:39.220Z,26.58
2022-12-14T06:00:08.633Z,26.35
2022-12-14T06:02:36.418Z,26.33
2022-12-14T06:05:05.402Z,22.92
2022-12-14T06:07:41.183Z,28.27
2022-12-14T06:10:11.863Z,31.27
2022-12-14T06:12:39.657Z,28.65
2022-12-14T06:15:08.598Z,27.63
2022-12-14T06:17:36.386Z,29.63
2022-12-14T06:20:06.078Z,29.75
2022-12-14T06:22:35.967Z,27.80
2022-12-14T06:25:04.835Z,28.02
2022-12-14T06:27:33.348Z,36.15
2022-12-14T06:30:01.400Z,31.77
2022-12-14T06:32:29.616Z,36.05
2022-12-14T06:34:57.636Z,39.40
2022-12-14T06:37:25.840Z,34.30
2022-12-14T06:39:56.981Z,28.83
2022-12-14T06:42:25.106Z,35.75
2022-12-14T06:44:53.186Z,31.40
2022-12-14T06:47:20.938Z,35.13
2022-12-14T06:49:50.566Z,32.70
2022-12-14T06:52:23.382Z,33.15
2022-12-14T06:54:54.929Z,38.75
2022-12-14T06:57:22.847Z,34.10
2022-12-14T06:59:50.806Z,32.53
2022-12-14T07:02:18.679Z,34.63
2022-12-14T07:04:47.103Z,38.22
2022-12-14T07:07:14.843Z,36.13
2022-12-14T07:09:42.858Z,37.38
2022-12-14T07:12:10.611Z,37.80
2022-12-14T07:14:39.128Z,41.55
2022-12-14T07:17:07.345Z,40.63
2022-12-14T07:19:35.928Z,40.33
2022-12-14T07:22:04.747Z,49.80
2022-12-14T07:24:33.691Z,39.72
2022-12-14T07:27:01.487Z,40.13
2022-12-14T07:29:34.505Z,38.53
2022-12-14T07:32:03.740Z,38.47
2022-12-14T07:34:31.770Z,41.58
2022-12-14T07:37:00.439Z,38.65
2022-12-14T07:39:28.585Z,39.28
2022-12-14T07:41:56.884Z,44.47
2022-12-14T07:44:24.868Z,44.08
2022-12-14T07:46:54.073Z,44.92
2022-12-14T07:49:24.758Z,43.65
2022-12-14T07:51:55.526Z,38.85
2022-12-14T07:54:25.164Z,42.72
2022-12-14T07:56:53.076Z,38.88
2022-12-14T07:59:22.760Z,39.13
2022-12-14T08:01:55.802Z,36.03
2022-12-14T08:04:23.907Z,34.90
2022-12-14T08:06:52.587Z,40.40
2022-12-14T08:09:21.247Z,39.45
2022-12-14T08:11:49.169Z,40.63
2022-12-14T08:14:19.093Z,38.10
2022-12-14T08:16:48.556Z,40.97
2022-12-14T08:19:19.301Z,42.03
2022-12-14T08:21:47.396Z,35.95
2022-12-14T08:24:17.122Z,39.53
2022-12-14T08:26:49.259Z,42.88
2022-12-14T08:29:18.629Z,40.13
2022-12-14T08:31:46.757Z,37.65
2022-12-14T08:34:21.953Z,37.45
2022-12-14T08:36:50.511Z,42.50
2022-12-14T08:39:21.291Z,44.60
2022-12-14T08:41:49.444Z,42.70
2022-12-14T08:44:18.610Z,42.15
2022-12-14T08:46:46.966Z,37.33
2022-12-14T08:51:46.088Z,41.75
2022-12-14T08:54:15.144Z,36.75
2022-12-14T08:56:44.092Z,42.65
2022-12-14T08:59:36.627Z,39.90
2022-12-14T09:02:01.723Z,36.20
2022-12-14T09:04:30.720Z,36.05
2022-12-14T09:06:58.554Z,41.50
2022-12-14T09:09:26.532Z,37.72
2022-12-14T09:11:54.697Z,35.08
2022-12-14T09:14:23.191Z,33.58
2022-12-14T09:16:50.938Z,33.70
2022-12-14T09:19:20.139Z,37.90
2022-12-14T09:21:49.050Z,33.67
2022-12-14T09:24:20.014Z,37.58
2022-12-14T09:26:47.901Z,32.08
2022-12-14T09:29:18.782Z,35.88
2022-12-14T09:31:46.862Z,38.78
2022-12-14T09:34:14.977Z,35.45
2022-12-14T09:36:42.801Z,37.30
2022-12-14T09:39:14.912Z,37.97
2022-12-14T09:42:01.037Z,35.03
2022-12-14T09:44:54.218Z,34.03
2022-12-14T09:47:48.472Z,29.48
2022-12-14T09:50:21.020Z,29.00
2022-12-14T09:52:59.054Z,30.48
2022-12-14T09:55:36.142Z,37.03
2022-12-14T09:58:15.452Z,34.30
2022-12-14T10:00:53.339Z,32.97
2022-12-14T10:03:43.202Z,35.45
2022-12-14T10:06:26.666Z,29.95
2022-12-14T10:08:57.372Z,34.70
2022-12-14T10:11:40.630Z,39.33
2022-12-14T10:14:44.054Z,38.22
2022-12-14T10:17:40.651Z,34.03
2022-12-14T10:20:27.566Z,33.65
2022-12-14T10:23:00.393Z,31.48
2022-12-14T10:25:33.818Z,31.30
2022-12-14T10:28:11.754Z,32.45
2022-12-14T10:30:42.390Z,34.15
2022-12-14T10:33:29.859Z,27.23
2022-12-14T10:36:38.332Z,29.40
2022-12-14T10:39:42.215Z,36.30
2022-12-14T10:42:39.332Z,30.38
2022-12-14T10:45:42.526Z,33.13
2022-12-14T10:48:31.705Z,25.63
2022-12-14T10:51:31.789Z,25.65
2022-12-14T10:54:24.405Z,28.17
2022-12-14T10:56:57.391Z,28.20
2022-12-14T10:59:35.140Z,25.73
2022-12-14T11:02:17.407Z,34.20
2022-12-14T11:05:01.569Z,24.27
2022-12-14T11:07:33.163Z,28.73
2022-12-14T11:10:31.541Z,28.95
2022-12-14T11:13:16.403Z,28.30
2022-12-14T11:15:49.005Z,29.13
2022-12-14T11:18:17.667Z,30.42
2022-12-14T11:20:50.874Z,25.63
2022-12-14T11:23:21.662Z,26.67
2022-12-14T11:25:51.410Z,30.27
2022-12-14T11:28:36.556Z,26.48
2022-12-14T11:31:21.332Z,23.55
2022-12-14T11:33:51.997Z,25.73
2022-12-14T11:36:39.988Z,27.17
2022-12-14T11:39:14.683Z,27.33
2022-12-14T11:41:48.013Z,26.42
2022-12-14T11:44:16.049Z,28.95
2022-12-14T11:47:00.196Z,27.08
2022-12-14T11:49:29.916Z,26.35
2022-12-14T11:52:19.892Z,23.90
2022-12-14T11:55:08.836Z,29.88
2022-12-14T11:57:57.293Z,26.55
2022-12-14T12:00:42.554Z,24.35
2022-12-14T12:03:43.074Z,26.80
2022-12-14T12:06:24.925Z,24.40
2022-12-14T12:08:56.366Z,23.50
2022-12-14T12:11:29.894Z,20.48
2022-12-14T12:14:06.764Z,29.45
2022-12-14T12:16:35.673Z,25.08
2022-12-14T12:19:14.813Z,26.73
2022-12-14T12:21:44.944Z,24.05
2022-12-14T12:24:38.782Z,27.75
2022-12-14T12:27:17.262Z,32.83
2022-12-14T12:30:01.057Z,26.23
2022-12-14T12:32:41.362Z,27.65
2022-12-14T12:35:43.181Z,31.02
2022-12-14T12:38:19.239Z,29.40
2022-12-14T12:41:36.012Z,28.13
2022-12-14T12:44:10.288Z,28.40
2022-12-14T12:47:07.212Z,23.30
2022-12-14T12:49:34.535Z,25.17
2022-12-14T12:52:15.797Z,24.08
2022-12-14T12:54:56.322Z,30.25
2022-12-14T12:57:30.755Z,26.95
2022-12-14T13:00:02.294Z,28.77
2022-12-14T13:02:44.778Z,26.42
2022-12-14T13:05:46.355Z,26.27
2022-12-14T13:08:28.286Z,28.13
2022-12-14T13:14:30.559Z,26.25
2022-12-14T13:17:06.184Z,23.58
2022-12-14T13:19:54.411Z,25.15
2022-12-14T13:22:30.757Z,26.38
2022-12-14T13:25:18.174Z,26.08
2022-12-14T13:28:16.042Z,26.25
2022-12-14T13:31:09.305Z,28.60
2022-12-14T13:33:59.798Z,26.20
2022-12-14T13:36:46.297Z,28.52
2022-12-14T13:39:39.585Z,33.08
2022-12-14T13:42:17.949Z,29.80
2022-12-14T13:44:57.900Z,27.05
2022-12-14T13:47:42.870Z,26.55
2022-12-14T13:50:43.312Z,25.88
2022-12-14T13:53:40.309Z,28.13
2022-12-14T13:56:09.787Z,32.03
2022-12-14T13:58:44.429Z,27.40
2022-12-14T14:01:15.412Z,27.38
2022-12-14T14:03:46.746Z,35.42
2022-12-14T14:06:35.132Z,29.40
2022-12-14T14:09:35.201Z,29.55
2022-12-14T14:12:24.713Z,33.40
2022-12-14T14:14:52.720Z,33.85
2022-12-14T14:17:39.360Z,30.80
2022-12-14T14:20:47.094Z,31.30
2022-12-14T14:23:18.065Z,33.88
2022-12-14T14:25:49.279Z,35.33
2022-12-14T14:28:27.657Z,28.80
2022-12-14T14:31:05.552Z,29.63
2022-12-14T14:33:49.228Z,35.03
2022-12-14T14:36:30.936Z,34.55
2022-12-14T14:39:01.934Z,37.55
2022-12-14T14:41:42.624Z,33.00
2022-12-14T14:44:37.356Z,31.45
2022-12-14T14:47:22.233Z,35.05
2022-12-14T14:50:00.368Z,33.60
2022-12-14T14:52:43.292Z,32.65
2022-12-14T14:55:52.580Z,33.28
2022-12-14T14:58:47.751Z,33.10
2022-12-14T15:01:25.088Z,31.98
2022-12-14T15:03:55.758Z,28.33
2022-12-14T15:06:28.758Z,29.95
2022-12-14T15:08:59.126Z,32.00
2022-12-14T15:11:31.424Z,28.90
2022-12-14T15:14:04.689Z,35.03
2022-12-14T15:16:41.951Z,32.10
2022-12-14T15:19:22.203Z,30.33
2022-12-14T15:22:00.153Z,26.13
2022-12-14T15:24:28.017Z,29.38
2022-12-14T15:26:56.609Z,32.50
2022-12-14T15:29:28.448Z,31.70
2022-12-14T15:32:00.672Z,33.85
2022-12-14T15:34:29.641Z,32.85
2022-12-14T15:36:57.927Z,33.60
2022-12-14T15:39:39.918Z,30.50
2022-12-14T15:42:16.829Z,25.33
2022-12-14T15:44:52.477Z,30.23
2022-12-14T15:47:31.290Z,26.85
2022-12-14T15:50:34.762Z,30.25
2022-12-14T15:53:25.978Z,29.55
2022-12-14T15:56:01.073Z,35.70
2022-12-14T15:58:35.994Z,29.17
2022-12-14T16:01:25.825Z,29.13
2022-12-14T16:03:56.642Z,37.90
2022-12-14T16:06:28.106Z,30.03
2022-12-14T16:09:05.714Z,26.88
2022-12-14T16:11:39.322Z,32.42
2022-12-14T16:14:28.318Z,28.40
2022-12-14T16:16:57.195Z,26.83
2022-12-14T16:19:31.589Z,31.27
2022-12-14T16:22:22.296Z,35.08
2022-12-14T16:25:08.159Z,29.33
2022-12-14T16:27:50.159Z,25.45
2022-12-14T16:30:30.156Z,29.08
2022-12-14T16:33:19.088Z,32.60
2022-12-14T16:35:59.071Z,32.33
2022-12-14T16:38:28.543Z,25.85
2022-12-14T16:41:03.109Z,37.88
2022-12-14T16:43:41.658Z,27.90
2022-12-14T16:46:13.463Z,31.85
2022-12-14T16:48:44.576Z,38.50
2022-12-14T16:52:05.889Z,27.20
2022-12-14T16:54:27.877Z,33.40
2022-12-14T16:56:59.604Z,30.75
2022-12-14T17:01:58.139Z,27.17
2022-12-14T17:04:37.590Z,33.10
2022-12-14T17:07:05.714Z,32.72
2022-12-14T17:09:36.743Z,134.43
2022-12-14T17:12:14.203Z,44.38
2022-12-14T17:14:49.467Z,40.78
2022-12-14T17:17:29.157Z,42.72
2022-12-14T17:19:57.050Z,34.45
2022-12-14T17:22:31.662Z,36.22
2022-12-14T17:25:01.214Z,49.50
2022-12-14T17:27:30.202Z,32.63
2022-12-14T17:29:58.813Z,31.80
2022-12-14T17:32:32.678Z,35.38
2022-12-14T17:35:00.948Z,32.47
2022-12-14T17:37:35.679Z,31.52
2022-12-14T17:40:06.442Z,27.42
2022-12-14T17:42:38.755Z,34.75
2022-12-14T17:45:17.817Z,34.80
2022-12-14T17:47:45.887Z,29.30
2022-12-14T17:50:15.397Z,30.30
2022-12-14T17:52:43.769Z,30.55
2022-12-14T17:55:20.705Z,25.10
2022-12-14T17:57:53.465Z,29.73
2022-12-14T18:00:42.949Z,24.13
2022-12-14T18:03:13.218Z,24.77
2022-12-14T18:05:48.062Z,24.67
2022-12-14T18:08:24.434Z,31.33
2022-12-14T18:10:57.275Z,35.25
2022-12-14T18:13:27.347Z,34.53
2022-12-14T18:15:55.533Z,31.65
2022-12-14T18:18:27.638Z,28.45
2022-12-14T18:21:00.387Z,33.25
2022-12-14T18:23:33.399Z,28.08
2022-12-14T18:26:05.262Z,28.80
2022-12-14T18:28:33.646Z,30.50
2022-12-14T18:31:07.065Z,32.50
2022-12-14T18:33:35.829Z,33.13
2022-12-14T18:36:03.757Z,25.45
2022-12-14T18:38:31.780Z,29.42
2022-12-14T18:41:03.255Z,24.45
2022-12-14T18:43:35.809Z,27.77
2022-12-14T18:46:06.768Z,27.02
2022-12-14T18:48:35.552Z,22.40
2022-12-14T18:51:04.253Z,26.27
2022-12-14T18:56:08.454Z,23.70
2022-12-14T18:58:37.417Z,23.50
2022-12-14T19:01:13.130Z,24.08
2022-12-14T19:03:42.316Z,34.20
2022-12-14T19:09:04.943Z,23.17
2022-12-14T19:11:38.775Z,22.17
2022-12-14T19:14:07.383Z,21.67
2022-12-14T19:16:37.539Z,22.13
2022-12-14T19:19:06.070Z,20.77
2022-12-14T19:21:33.810Z,20.80
2022-12-14T19:24:02.853Z,19.75
2022-12-14T19:26:33.397Z,19.75
2022-12-14T19:29:01.944Z,19.08
2022-12-14T19:31:29.780Z,18.27
2022-12-14T19:33:58.410Z,21.88
2022-12-14T19:36:28.694Z,17.88
2022-12-14T19:38:57.069Z,19.20
2022-12-14T19:41:25.135Z,22.27
2022-12-14T19:43:56.315Z,15.35
2022-12-14T19:46:24.204Z,17.35
2022-12-14T19:48:52.257Z,18.00
2022-12-14T19:51:21.580Z,18.20
2022-12-14T19:53:50.235Z,21.42
2022-12-14T19:56:19.069Z,21.00
2022-12-14T19:58:47.912Z,21.08
2022-12-14T20:01:17.578Z,25.95
2022-12-14T20:03:46.509Z,20.77
2022-12-14T20:06:14.476Z,21.73
2022-12-14T20:08:42.526Z,27.10
2022-12-14T20:11:12.158Z,23.80
2022-12-14T20:13:40.751Z,19.77
2022-12-14T20:16:15.601Z,20.13
2022-12-14T20:18:44.429Z,19.55
2022-12-14T20:21:18.513Z,17.60
2022-12-14T20:23:50.694Z,18.98
2022-12-14T20:26:21.098Z,14.55
2022-12-14T20:28:50.708Z,19.75
2022-12-14T20:31:22.642Z,20.20
2022-12-14T20:33:51.390Z,15.43
2022-12-14T20:36:19.510Z,13.95
2022-12-14T20:38:53.590Z,17.08
2022-12-14T20:41:21.391Z,14.63
2022-12-14T20:43:54.367Z,16.02
2022-12-14T20:46:25.445Z,17.10
2022-12-14T20:51:22.751Z,13.00
2022-12-14T20:53:50.887Z,18.27
2022-12-14T20:56:19.136Z,19.60
2022-12-14T20:58:48.379Z,14.30
2022-12-14T21:01:21.573Z,12.25
2022-12-14T21:03:50.415Z,13.70
2022-12-14T21:06:22.729Z,13.77
2022-12-14T21:09:09.372Z,19.02
2022-12-14T21:12:03.081Z,10.30
2022-12-14T21:14:38.302Z,11.70
2022-12-14T21:17:06.525Z,12.30
2022-12-14T21:19:36.176Z,10.15
2022-12-14T21:22:06.425Z,12.90
2022-12-14T21:27:27.701Z,14.02
2022-12-14T21:29:55.807Z,11.13
2022-12-14T21:32:23.658Z,11.23
2022-12-14T21:34:52.039Z,15.13
2022-12-14T21:37:23.330Z,10.15
2022-12-14T21:39:54.580Z,12.18
2022-12-14T21:42:26.615Z,9.38
2022-12-14T21:44:56.162Z,8.95
2022-12-14T21:47:29.454Z,10.20
2022-12-14T21:49:58.039Z,14.38
2022-12-14T21:52:29.212Z,13.98
2022-12-14T21:55:00.240Z,9.68
2022-12-14T21:57:49.913Z,13.05
2022-12-14T22:00:19.709Z,12.48
2022-12-14T22:02:48.208Z,11.73
2022-12-14T22:05:19.492Z,12.18
2022-12-14T22:07:47.653Z,9.87
2022-12-14T22:10:18.802Z,12.75
2022-12-14T22:12:51.432Z,9.98
2022-12-14T22:15:19.180Z,11.15
2022-12-14T22:17:47.195Z,12.30
2022-12-14T22:20:14.910Z,16.13
2022-12-14T22:22:44.904Z,15.38
2022-12-14T22:25:13.043Z,19.08
2022-12-14T22:27:41.059Z,15.68
2022-12-14T22:30:09.387Z,14.98
2022-12-14T22:32:37.525Z,15.10
2022-12-14T22:35:06.263Z,11.98
2022-12-14T22:37:34.310Z,15.32
2022-12-14T22:40:04.301Z,17.08
2022-12-14T22:42:33.833Z,13.32
2022-12-14T22:45:01.565Z,17.40
2022-12-14T22:47:32.257Z,14.70
2022-12-14T22:49:59.978Z,14.27
2022-12-14T22:52:28.035Z,17.92
2022-12-14T22:54:55.891Z,17.90
2022-12-14T22:57:24.210Z,19.35
2022-12-14T23:00:01.395Z,16.65
2022-12-14T23:02:31.055Z,16.58
2022-12-14T23:04:59.571Z,15.13
2022-12-14T23:07:28.259Z,17.42
2022-12-14T23:10:14.684Z,16.70
2022-12-14T23:13:01.326Z,15.63
2022-12-14T23:15:47.524Z,18.73
2022-12-14T23:18:34.681Z,10.27
2022-12-14T23:21:31.188Z,18.10
2022-12-14T23:24:18.151Z,13.65
2022-12-14T23:27:08.993Z,15.80
2022-12-14T23:29:56.624Z,17.00
2022-12-14T23:32:43.328Z,17.05
2022-12-14T23:35:29.877Z,12.23
2022-12-14T23:38:21.222Z,17.42
2022-12-14T23:41:07.927Z,13.90
2022-12-14T23:43:56.566Z,18.90
2022-12-14T23:46:43.134Z,16.83
2022-12-14T23:49:29.714Z,14.45
2022-12-14T23:52:16.287Z,12.93
2022-12-14T23:55:05.000Z,22.92
2022-12-14T23:57:52.281Z,15.18
